createdAt,value
2023-02-21T00:02:03.866Z,7.00
2023-02-21T00:04:49.167Z,7.00
2023-02-21T00:07:35.277Z,7.00
2023-02-21T00:10:20.667Z,7.00
2023-02-21T00:13:06.257Z,7.00
2023-02-21T00:15:52.048Z,7.00
2023-02-21T00:18:39.129Z,7.00
2023-02-21T00:21:24.648Z,7.00
2023-02-21T00:24:10.675Z,6.90
2023-02-21T00:26:56.260Z,6.90
2023-02-21T00:29:41.786Z,6.90
2023-02-21T00:32:27.874Z,7.00
2023-02-21T00:35:13.323Z,7.00
2023-02-21T00:37:58.998Z,7.00
2023-02-21T00:40:44.292Z,7.00
2023-02-21T00:43:29.752Z,7.00
2023-02-21T00:46:15.846Z,7.10
2023-02-21T00:49:01.234Z,7.00
2023-02-21T00:51:46.697Z,7.10
2023-02-21T00:54:32.076Z,7.10
2023-02-21T00:57:17.551Z,7.20
2023-02-21T01:00:02.931Z,7.20
2023-02-21T01:02:48.618Z,7.20
2023-02-21T01:05:34.593Z,7.20
2023-02-21T01:08:22.056Z,7.20
2023-02-21T01:11:07.483Z,7.20
2023-02-21T01:13:52.989Z,7.40
2023-02-21T01:16:38.437Z,7.30
2023-02-21T01:19:25.244Z,7.30
2023-02-21T01:22:10.675Z,7.30
2023-02-21T01:24:56.494Z,7.40
2023-02-21T01:27:43.498Z,7.40
2023-02-21T01:30:29.881Z,7.40
2023-02-21T01:33:15.828Z,7.40
2023-02-21T01:36:01.539Z,7.50
2023-02-21T01:38:46.951Z,7.50
2023-02-21T01:41:32.551Z,7.50
2023-02-21T01:44:52.334Z,7.40
2023-02-21T01:47:39.270Z,7.40
2023-02-21T01:50:44.169Z,7.40
2023-02-21T01:53:37.096Z,7.30
2023-02-21T01:56:25.102Z,7.40
2023-02-21T01:59:14.967Z,7.30
2023-02-21T02:02:12.017Z,7.30
2023-02-21T02:04:59.349Z,7.30
2023-02-21T02:07:44.830Z,7.20
2023-02-21T02:10:31.767Z,7.20
2023-02-21T02:13:34.095Z,7.20
2023-02-21T02:16:53.404Z,7.20
2023-02-21T02:20:20.798Z,7.20
2023-02-21T02:23:22.824Z,7.20
2023-02-21T02:26:38.849Z,7.20
2023-02-21T02:29:34.527Z,7.10
2023-02-21T02:32:47.257Z,7.10
2023-02-21T02:35:26.049Z,7.10
2023-02-21T02:38:34.229Z,7.00
2023-02-21T02:41:21.203Z,7.00
2023-02-21T02:43:56.788Z,7.00
2023-02-21T02:46:28.903Z,7.00
2023-02-21T02:49:13.457Z,7.00
2023-02-21T02:51:41.174Z,7.00
2023-02-21T02:54:10.234Z,6.90
2023-02-21T02:56:38.949Z,6.90
2023-02-21T02:59:09.321Z,6.90
2023-02-21T03:01:48.783Z,6.90
2023-02-21T03:04:52.589Z,6.80
2023-02-21T03:07:42.046Z,6.80
2023-02-21T03:10:52.793Z,6.80
2023-02-21T03:13:52.677Z,6.80
2023-02-21T03:16:34.751Z,6.70
2023-02-21T03:19:08.961Z,6.70
2023-02-21T03:21:41.986Z,6.70
2023-02-21T03:24:11.678Z,6.70
2023-02-21T03:26:43.027Z,6.70
2023-02-21T03:29:28.774Z,6.70
2023-02-21T03:32:12.344Z,6.70
2023-02-21T03:34:42.297Z,6.70
2023-02-21T03:37:31.577Z,6.70
2023-02-21T03:39:58.863Z,6.80
2023-02-21T03:42:26.256Z,6.80
2023-02-21T03:44:53.880Z,6.80
2023-02-21T03:47:21.890Z,6.80
2023-02-21T03:49:49.195Z,6.80
2023-02-21T03:52:17.317Z,6.90
2023-02-21T03:54:44.797Z,6.80
2023-02-21T03:57:16.177Z,6.80
2023-02-21T03:59:46.407Z,6.80
2023-02-21T04:02:14.562Z,6.80
2023-02-21T04:04:42.748Z,6.80
2023-02-21T04:07:19.265Z,6.80
2023-02-21T04:09:48.375Z,6.70
2023-02-21T04:12:21.425Z,6.70
2023-02-21T04:14:49.208Z,7.00
2023-02-21T04:17:17.195Z,6.70
2023-02-21T04:19:44.979Z,6.70
2023-02-21T04:22:12.097Z,6.80
2023-02-21T04:24:39.892Z,6.70
2023-02-21T04:27:07.578Z,6.70
2023-02-21T04:29:37.756Z,6.70
2023-02-21T04:32:05.239Z,6.70
2023-02-21T04:34:33.806Z,6.70
2023-02-21T04:37:01.096Z,6.70
2023-02-21T04:39:28.494Z,6.70
2023-02-21T04:41:55.594Z,6.70
2023-02-21T04:44:22.675Z,6.70
2023-02-21T04:46:49.793Z,6.70
2023-02-21T04:49:16.858Z,6.70
2023-02-21T04:51:43.898Z,6.70
2023-02-21T04:54:13.680Z,6.70
2023-02-21T04:56:41.206Z,7.20
2023-02-21T04:59:08.589Z,6.70
2023-02-21T05:01:35.832Z,6.60
2023-02-21T05:04:03.676Z,6.60
2023-02-21T05:06:32.111Z,6.60
2023-02-21T05:09:00.373Z,6.60
2023-02-21T05:11:28.365Z,6.60
2023-02-21T05:13:55.477Z,6.60
2023-02-21T05:16:22.712Z,6.70
2023-02-21T05:18:49.919Z,6.60
2023-02-21T05:21:19.580Z,6.60
2023-02-21T05:23:56.020Z,6.60
2023-02-21T05:26:27.533Z,6.60
2023-02-21T05:28:54.751Z,6.60
2023-02-21T05:31:21.968Z,6.60
2023-02-21T05:33:49.102Z,6.70
2023-02-21T05:36:17.850Z,6.70
2023-02-21T05:38:51.447Z,6.70
2023-02-21T05:41:19.860Z,6.70
2023-02-21T05:43:48.958Z,6.70
2023-02-21T05:46:33.023Z,6.80
2023-02-21T05:49:02.925Z,6.80
2023-02-21T05:51:40.498Z,6.80
2023-02-21T05:54:09.995Z,6.80
2023-02-21T05:56:43.284Z,6.80
2023-02-21T05:59:11.920Z,6.80
2023-02-21T06:01:39.866Z,6.80
2023-02-21T06:04:07.757Z,6.80
2023-02-21T06:06:35.699Z,6.80
2023-02-21T06:09:04.900Z,6.80
2023-02-21T06:11:35.389Z,6.80
2023-02-21T06:14:05.784Z,6.70
2023-02-21T06:16:35.675Z,6.70
2023-02-21T06:19:04.931Z,6.70
2023-02-21T06:21:32.886Z,6.70
2023-02-21T06:24:00.050Z,6.60
2023-02-21T06:26:27.777Z,6.60
2023-02-21T06:28:55.181Z,6.60
2023-02-21T06:31:22.783Z,6.60
2023-02-21T06:33:50.956Z,6.70
2023-02-21T06:36:22.088Z,6.70
2023-02-21T06:38:55.099Z,6.60
2023-02-21T06:41:29.401Z,6.60
2023-02-21T06:43:58.727Z,6.60
2023-02-21T06:46:29.376Z,6.60
2023-02-21T06:48:57.434Z,6.60
2023-02-21T06:51:29.830Z,6.60
2023-02-21T06:53:58.440Z,6.60
2023-02-21T06:56:26.349Z,6.60
2023-02-21T06:58:54.175Z,6.70
2023-02-21T07:01:23.828Z,6.70
2023-02-21T07:03:52.689Z,6.70
2023-02-21T07:06:19.947Z,6.70
2023-02-21T07:08:48.042Z,6.60
2023-02-21T07:11:16.956Z,6.70
2023-02-21T07:13:51.569Z,6.70
2023-02-21T07:16:20.261Z,6.70
2023-02-21T07:18:47.669Z,6.80
2023-02-21T07:21:16.332Z,6.80
2023-02-21T07:23:45.142Z,6.80
2023-02-21T07:26:13.032Z,6.90
2023-02-21T07:28:41.973Z,6.90
2023-02-21T07:31:10.941Z,6.90
2023-02-21T07:33:38.155Z,6.90
2023-02-21T07:36:05.872Z,6.90
2023-02-21T07:38:33.457Z,7.00
2023-02-21T07:41:03.260Z,7.00
2023-02-21T07:43:31.389Z,7.00
2023-02-21T07:45:58.919Z,7.00
2023-02-21T07:48:26.142Z,7.10
2023-02-21T07:50:53.290Z,7.10
2023-02-21T07:53:20.529Z,7.10
2023-02-21T07:55:47.720Z,7.20
2023-02-21T07:58:15.379Z,7.20
2023-02-21T08:00:42.731Z,7.30
2023-02-21T08:03:13.964Z,7.30
2023-02-21T08:05:41.758Z,7.30
2023-02-21T08:08:10.359Z,7.40
2023-02-21T08:10:37.856Z,7.50
2023-02-21T08:13:05.648Z,7.60
2023-02-21T08:15:32.895Z,7.70
2023-02-21T08:18:00.098Z,7.80
2023-02-21T08:20:27.285Z,7.80
2023-02-21T08:22:54.450Z,7.80
2023-02-21T08:25:21.492Z,7.80
2023-02-21T08:27:53.518Z,7.80
2023-02-21T08:30:21.328Z,7.80
2023-02-21T08:32:48.678Z,7.80
2023-02-21T08:35:18.236Z,7.90
2023-02-21T08:37:50.543Z,7.90
2023-02-21T08:40:21.175Z,7.90
2023-02-21T08:42:53.465Z,7.90
2023-02-21T08:45:22.964Z,7.90
2023-02-21T08:47:51.470Z,8.00
2023-02-21T08:50:20.952Z,7.80
2023-02-21T08:52:50.173Z,7.90
2023-02-21T08:55:19.888Z,8.00
2023-02-21T08:57:53.268Z,8.20
2023-02-21T09:00:23.968Z,8.10
2023-02-21T09:02:52.731Z,8.20
2023-02-21T09:05:27.040Z,8.20
2023-02-21T09:07:59.247Z,8.30
2023-02-21T09:10:34.153Z,8.30
2023-02-21T09:13:02.580Z,8.30
2023-02-21T09:15:30.052Z,8.40
2023-02-21T09:17:57.368Z,8.60
2023-02-21T09:20:26.379Z,8.60
2023-02-21T09:22:53.937Z,8.60
2023-02-21T09:25:25.016Z,8.60
2023-02-21T09:27:54.688Z,8.70
2023-02-21T09:30:26.704Z,8.90
2023-02-21T09:32:55.744Z,9.00
2023-02-21T09:35:24.003Z,9.30
2023-02-21T09:37:51.386Z,9.20
2023-02-21T09:40:24.550Z,9.10
2023-02-21T09:42:56.818Z,9.20
2023-02-21T09:45:26.733Z,9.30
2023-02-21T09:47:58.712Z,9.30
2023-02-21T09:50:31.357Z,9.20
2023-02-21T09:52:59.242Z,9.10
2023-02-21T09:55:38.301Z,9.00
2023-02-21T09:58:18.066Z,9.00
2023-02-21T10:00:46.827Z,9.00
2023-02-21T10:03:35.487Z,9.00
2023-02-21T10:06:10.214Z,9.00
2023-02-21T10:08:43.720Z,9.00
2023-02-21T10:11:48.546Z,9.00
2023-02-21T10:14:56.066Z,9.00
2023-02-21T10:17:35.208Z,8.90
2023-02-21T10:20:23.390Z,9.00
2023-02-21T10:22:52.709Z,9.20
2023-02-21T10:25:33.972Z,9.30
2023-02-21T10:28:01.347Z,9.50
2023-02-21T10:30:38.037Z,9.60
2023-02-21T10:33:09.170Z,9.70
2023-02-21T10:35:38.778Z,9.80
2023-02-21T10:38:14.010Z,9.10
2023-02-21T10:41:04.102Z,9.70
2023-02-21T10:43:38.162Z,10.00
2023-02-21T10:46:34.378Z,10.30
2023-02-21T10:49:28.960Z,10.20
2023-02-21T10:52:10.799Z,10.10
2023-02-21T10:54:38.844Z,10.00
2023-02-21T10:57:11.396Z,10.00
2023-02-21T10:59:43.088Z,9.80
2023-02-21T11:02:33.201Z,9.90
2023-02-21T11:05:13.717Z,10.10
2023-02-21T11:07:59.857Z,10.40
2023-02-21T11:10:43.177Z,10.30
2023-02-21T11:13:23.416Z,10.30
2023-02-21T11:16:11.361Z,10.70
2023-02-21T11:18:38.902Z,11.10
2023-02-21T11:21:19.970Z,11.10
2023-02-21T11:24:03.008Z,11.30
2023-02-21T11:26:58.699Z,11.90
2023-02-21T11:29:27.377Z,11.90
2023-02-21T11:31:55.666Z,12.90
2023-02-21T11:34:29.714Z,12.90
2023-02-21T11:37:04.036Z,12.70
2023-02-21T11:39:34.811Z,13.20
2023-02-21T11:42:05.020Z,14.00
2023-02-21T11:44:39.078Z,13.50
2023-02-21T11:47:23.155Z,13.10
2023-02-21T11:50:13.040Z,12.90
2023-02-21T11:53:06.310Z,13.10
2023-02-21T11:55:35.172Z,13.20
2023-02-21T11:58:26.277Z,12.70
2023-02-21T12:01:13.558Z,12.10
2023-02-21T12:04:09.823Z,12.30
2023-02-21T12:07:18.148Z,12.80
2023-02-21T12:09:51.080Z,13.10
2023-02-21T12:12:46.456Z,14.10
2023-02-21T12:15:47.847Z,14.90
2023-02-21T12:18:31.852Z,15.30
2023-02-21T12:21:33.032Z,14.20
2023-02-21T12:24:37.641Z,13.60
2023-02-21T12:27:36.710Z,13.20
2023-02-21T12:30:40.507Z,13.20
2023-02-21T12:33:26.025Z,13.70
2023-02-21T12:36:15.801Z,13.80
2023-02-21T12:38:46.660Z,14.10
2023-02-21T12:41:32.006Z,14.20
2023-02-21T12:44:22.629Z,13.50
2023-02-21T12:47:07.366Z,13.80
2023-02-21T12:50:01.675Z,14.60
2023-02-21T12:52:58.280Z,14.80
2023-02-21T12:55:33.967Z,15.10
2023-02-21T12:58:28.256Z,15.20
2023-02-21T13:01:20.776Z,15.50
2023-02-21T13:04:12.489Z,15.60
2023-02-21T13:06:53.654Z,14.90
2023-02-21T13:09:50.043Z,14.20
2023-02-21T13:12:27.753Z,15.00
2023-02-21T13:15:09.930Z,15.40
2023-02-21T13:17:37.281Z,14.90
2023-02-21T13:20:20.509Z,14.10
2023-02-21T13:22:58.026Z,13.10
2023-02-21T13:25:53.589Z,12.20
2023-02-21T13:28:24.350Z,11.60
2023-02-21T13:30:57.600Z,11.10
2023-02-21T13:34:00.195Z,11.10
2023-02-21T13:36:47.953Z,11.10
2023-02-21T13:39:22.077Z,11.00
2023-02-21T13:42:05.077Z,11.30
2023-02-21T13:44:36.721Z,11.30
2023-02-21T13:47:20.878Z,11.00
2023-02-21T13:49:57.442Z,10.70
2023-02-21T13:52:35.798Z,10.60
2023-02-21T13:55:14.574Z,10.40
2023-02-21T13:58:00.446Z,10.60
2023-02-21T14:00:27.761Z,11.00
2023-02-21T14:03:09.826Z,11.80
2023-02-21T14:05:49.266Z,12.60
2023-02-21T14:08:35.496Z,12.80
2023-02-21T14:11:05.533Z,12.20
2023-02-21T14:13:55.048Z,12.20
2023-02-21T14:16:35.703Z,12.10
2023-02-21T14:19:35.882Z,11.40
2023-02-21T14:22:31.461Z,10.90
2023-02-21T14:25:17.061Z,10.70
2023-02-21T14:27:44.882Z,10.70
2023-02-21T14:30:12.309Z,10.60
2023-02-21T14:32:47.448Z,10.50
2023-02-21T14:35:33.399Z,10.80
2023-02-21T14:38:19.894Z,11.20
2023-02-21T14:41:12.052Z,11.50
2023-02-21T14:43:50.459Z,12.30
2023-02-21T14:46:59.821Z,13.20
2023-02-21T14:50:09.614Z,13.60
2023-02-21T14:52:36.930Z,12.50
2023-02-21T14:55:35.259Z,11.80
2023-02-21T14:58:43.954Z,11.10
2023-02-21T15:01:42.230Z,11.80
2023-02-21T15:04:15.071Z,10.20
2023-02-21T15:06:53.743Z,9.80
2023-02-21T15:09:21.831Z,9.60
2023-02-21T15:11:51.449Z,9.50
2023-02-21T15:14:23.232Z,9.50
2023-02-21T15:17:20.801Z,9.60
2023-02-21T15:20:01.795Z,9.60
2023-02-21T15:22:30.667Z,9.60
2023-02-21T15:25:11.948Z,9.60
2023-02-21T15:27:56.164Z,9.60
2023-02-21T15:30:40.429Z,9.50
2023-02-21T15:33:20.443Z,9.40
2023-02-21T15:35:58.900Z,9.30
2023-02-21T15:38:44.111Z,9.10
2023-02-21T15:41:41.856Z,9.10
2023-02-21T15:44:24.245Z,9.00
2023-02-21T15:47:00.171Z,9.00
2023-02-21T15:49:36.495Z,8.90
2023-02-21T15:52:05.278Z,8.90
2023-02-21T15:54:39.207Z,8.80
2023-02-21T15:57:12.354Z,8.70
2023-02-21T15:59:40.444Z,8.70
2023-02-21T16:02:20.819Z,8.60
2023-02-21T16:04:50.918Z,8.50
2023-02-21T16:07:26.087Z,8.40
2023-02-21T16:10:02.055Z,8.30
2023-02-21T16:12:39.348Z,8.20
2023-02-21T16:15:18.351Z,8.20
2023-02-21T16:17:51.520Z,8.10
2023-02-21T16:20:21.122Z,8.00
2023-02-21T16:23:07.359Z,8.00
2023-02-21T16:25:59.963Z,8.00
2023-02-21T16:28:28.757Z,7.90
2023-02-21T16:30:59.143Z,8.00
2023-02-21T16:33:28.387Z,8.00
2023-02-21T16:35:56.383Z,8.00
2023-02-21T16:38:25.674Z,8.00
2023-02-21T16:40:53.569Z,7.90
2023-02-21T16:43:29.487Z,8.00
2023-02-21T16:45:58.676Z,8.00
2023-02-21T16:48:33.119Z,8.00
2023-02-21T16:51:04.758Z,7.90
2023-02-21T16:53:32.293Z,8.00
2023-02-21T16:56:03.789Z,8.00
2023-02-21T16:58:39.158Z,8.00
2023-02-21T17:01:19.430Z,8.00
2023-02-21T17:03:46.771Z,8.00
2023-02-21T17:06:22.247Z,8.00
2023-02-21T17:08:49.539Z,8.00
2023-02-21T17:11:16.878Z,8.00
2023-02-21T17:13:44.258Z,8.00
2023-02-21T17:16:11.486Z,8.00
2023-02-21T17:18:38.720Z,8.00
2023-02-21T17:21:06.119Z,8.00
2023-02-21T17:23:33.239Z,8.00
2023-02-21T17:26:00.436Z,7.90
2023-02-21T17:28:27.643Z,7.90
2023-02-21T17:30:55.516Z,8.00
2023-02-21T17:33:22.749Z,8.00
2023-02-21T17:35:50.001Z,8.00
2023-02-21T17:38:17.190Z,7.90
2023-02-21T17:40:46.461Z,7.90
2023-02-21T17:43:16.743Z,7.90
2023-02-21T17:45:46.025Z,7.90
2023-02-21T17:48:13.300Z,7.90
2023-02-21T17:50:40.676Z,7.90
2023-02-21T17:53:08.784Z,7.90
2023-02-21T17:55:35.929Z,8.00
2023-02-21T17:58:03.070Z,7.90
2023-02-21T18:00:35.154Z,7.90
2023-02-21T18:03:04.270Z,7.80
2023-02-21T18:05:32.474Z,7.90
2023-02-21T18:07:59.770Z,7.90
2023-02-21T18:10:27.948Z,7.80
2023-02-21T18:12:56.437Z,7.80
2023-02-21T18:15:29.911Z,7.80
2023-02-21T18:18:03.835Z,7.80
2023-02-21T18:20:31.951Z,7.80
2023-02-21T18:22:59.353Z,7.80
2023-02-21T18:25:26.917Z,7.70
2023-02-21T18:27:54.011Z,7.90
2023-02-21T18:30:22.098Z,7.90
2023-02-21T18:32:49.369Z,7.80
2023-02-21T18:35:17.611Z,7.80
2023-02-21T18:37:47.069Z,7.90
2023-02-21T18:40:17.290Z,7.90
2023-02-21T18:42:45.192Z,7.80
2023-02-21T18:45:12.591Z,7.80
2023-02-21T18:47:39.912Z,7.80
2023-02-21T18:50:07.948Z,7.80
2023-02-21T18:52:35.186Z,7.80
2023-02-21T18:55:04.034Z,7.80
2023-02-21T18:57:31.394Z,7.80
2023-02-21T18:59:58.962Z,7.80
2023-02-21T19:02:27.016Z,7.80
2023-02-21T19:04:54.282Z,7.70
2023-02-21T19:07:21.550Z,7.80
2023-02-21T19:09:50.322Z,7.80
2023-02-21T19:12:17.942Z,7.80
2023-02-21T19:14:45.771Z,7.80
2023-02-21T19:17:13.284Z,7.70
2023-02-21T19:19:40.681Z,7.70
2023-02-21T19:22:07.900Z,7.70
2023-02-21T19:24:35.261Z,7.80
2023-02-21T19:27:03.610Z,7.70
2023-02-21T19:29:30.732Z,7.70
2023-02-21T19:31:58.281Z,7.70
2023-02-21T19:34:25.448Z,7.70
2023-02-21T19:36:52.738Z,7.70
2023-02-21T19:39:19.942Z,7.70
2023-02-21T19:41:47.564Z,7.70
2023-02-21T19:44:15.322Z,7.70
2023-02-21T19:46:42.897Z,7.60
2023-02-21T19:49:17.990Z,7.60
2023-02-21T19:51:49.715Z,7.50
2023-02-21T19:54:19.998Z,7.50
2023-02-21T19:56:47.961Z,7.50
2023-02-21T19:59:15.220Z,7.50
2023-02-21T20:01:42.987Z,7.50
2023-02-21T20:04:10.310Z,7.50
2023-02-21T20:06:37.857Z,7.40
2023-02-21T20:09:09.972Z,7.40
2023-02-21T20:11:40.239Z,7.40
2023-02-21T20:14:11.220Z,7.30
2023-02-21T20:16:41.170Z,7.20
2023-02-21T20:19:10.722Z,7.20
2023-02-21T20:21:39.284Z,7.20
2023-02-21T20:24:07.247Z,7.20
2023-02-21T20:26:35.108Z,7.20
2023-02-21T20:29:03.462Z,7.20
2023-02-21T20:31:32.847Z,7.10
2023-02-21T20:34:03.108Z,7.00
2023-02-21T20:36:34.222Z,7.00
2023-02-21T20:39:02.540Z,7.00
2023-02-21T20:41:31.848Z,6.90
2023-02-21T20:43:59.731Z,6.90
2023-02-21T20:46:28.785Z,6.90
2023-02-21T20:48:58.738Z,6.90
2023-02-21T20:51:32.938Z,6.90
2023-02-21T20:54:01.134Z,7.20
2023-02-21T20:56:40.466Z,6.70
2023-02-21T20:59:15.948Z,6.70
2023-02-21T21:01:50.387Z,6.70
2023-02-21T21:04:26.716Z,6.60
2023-02-21T21:07:12.633Z,6.50
2023-02-21T21:09:40.133Z,6.50
2023-02-21T21:12:14.738Z,6.40
2023-02-21T21:14:44.983Z,6.40
2023-02-21T21:17:16.498Z,6.30
2023-02-21T21:19:46.492Z,6.40
2023-02-21T21:22:28.802Z,6.20
2023-02-21T21:24:56.568Z,6.10
2023-02-21T21:27:24.001Z,6.10
2023-02-21T21:29:53.685Z,6.00
2023-02-21T21:32:23.582Z,5.90
2023-02-21T21:34:57.380Z,5.90
2023-02-21T21:37:29.737Z,5.90
2023-02-21T21:39:57.192Z,5.90
2023-02-21T21:42:28.219Z,5.70
2023-02-21T21:44:57.070Z,5.60
2023-02-21T21:47:28.746Z,5.60
2023-02-21T21:49:56.861Z,5.60
2023-02-21T21:52:24.643Z,5.50
2023-02-21T21:54:52.042Z,5.60
2023-02-21T21:57:19.975Z,5.70
2023-02-21T21:59:50.130Z,5.70
2023-02-21T22:02:17.610Z,5.80
2023-02-21T22:04:45.680Z,5.80
2023-02-21T22:07:14.199Z,5.90
2023-02-21T22:09:41.600Z,5.80
2023-02-21T22:12:16.398Z,5.80
2023-02-21T22:14:43.541Z,5.80
2023-02-21T22:17:11.691Z,5.80
2023-02-21T22:19:38.754Z,5.80
2023-02-21T22:22:08.199Z,5.80
2023-02-21T22:24:35.906Z,5.70
2023-02-21T22:27:03.450Z,5.80
2023-02-21T22:29:31.660Z,5.80
2023-02-21T22:31:59.081Z,5.60
2023-02-21T22:34:26.644Z,5.50
2023-02-21T22:36:57.589Z,5.40
2023-02-21T22:39:26.360Z,5.50
2023-02-21T22:41:54.091Z,5.50
2023-02-21T22:44:24.927Z,5.50
2023-02-21T22:46:59.913Z,5.40
2023-02-21T22:49:28.665Z,5.40
2023-02-21T22:51:57.911Z,5.40
2023-02-21T22:54:26.369Z,5.30
2023-02-21T22:56:54.911Z,5.30
2023-02-21T22:59:26.723Z,5.30
2023-02-21T23:01:54.376Z,5.30
2023-02-21T23:04:27.661Z,5.40
2023-02-21T23:06:57.667Z,5.40
2023-02-21T23:09:26.831Z,5.40
2023-02-21T23:11:58.472Z,5.30
2023-02-21T23:14:27.227Z,5.30
2023-02-21T23:16:59.158Z,5.20
2023-02-21T23:19:29.121Z,5.20
2023-02-21T23:21:59.978Z,5.20
2023-02-21T23:24:28.480Z,5.20
2023-02-21T23:26:55.690Z,5.20
2023-02-21T23:29:25.980Z,5.20
2023-02-21T23:31:57.860Z,5.30
2023-02-21T23:34:40.183Z,5.30
2023-02-21T23:37:09.287Z,5.40
2023-02-21T23:39:36.498Z,5.40
2023-02-21T23:42:04.115Z,5.40
2023-02-21T23:44:36.030Z,5.30
2023-02-21T23:47:05.894Z,5.20
2023-02-21T23:49:33.412Z,5.10
2023-02-21T23:52:01.675Z,4.90
2023-02-21T23:54:29.368Z,4.80
2023-02-21T23:57:00.416Z,4.70
2023-02-21T23:59:28.613Z,4.60
